Time;durP1;ratioP1;P1;durP2;ratioP2;P2;SDS_P1;SDS_P2;PMS_P1;PMS_P2;Temp;Humidity;BMP_temperature;BMP_pressure;BME280_temperature;BME280_humidity;BME280_pressure;Samples;Min_cycle;Max_cycle;Signal;HPM_P1;HPM_P2
2024/01/06 00:02:32;;;;;;;5.87;3.20;;;;;;;;;;10329463;28;20271;-68
2024/01/06 00:07:32;;;;;;;6.77;2.73;;;;;;;;;;10329645;28;20185;-68
2024/01/06 00:12:33;;;;;;;4.63;2.77;;;;;;;;;;10329139;28;20200;-68
2024/01/06 00:17:33;;;;;;;5.03;2.40;;;;;;;;;;10327624;28;20186;-68
2024/01/06 00:22:33;;;;;;;2.87;2.57;;;;;;;;;;10328716;28;20361;-68
2024/01/06 00:27:33;;;;;;;4.57;2.70;;;;;;;;;;10328221;28;20208;-69
2024/01/06 00:32:33;;;;;;;6.13;3.00;;;;;;;;;;10328605;28;20445;-68
2024/01/06 00:37:34;;;;;;;3.67;2.27;;;;;;;;;;10326878;28;20198;-68
2024/01/06 00:42:34;;;;;;;5.90;2.30;;;;;;;;;;10327976;28;20233;-68
2024/01/06 00:47:34;;;;;;;7.63;2.63;;;;;;;;;;10328171;28;20626;-68
2024/01/06 00:52:34;;;;;;;6.93;2.67;;;;;;;;;;10328072;28;20308;-68
2024/01/06 00:57:34;;;;;;;4.83;2.50;;;;;;;;;;10324737;28;20212;-68
2024/01/06 01:02:34;;;;;;;3.40;2.50;;;;;;;;;;10325973;28;20279;-68
2024/01/06 01:07:35;;;;;;;6.30;2.37;;;;;;;;;;10328066;28;20197;-69
2024/01/06 01:12:35;;;;;;;3.70;2.10;;;;;;;;;;10327534;28;20193;-68
2024/01/06 01:17:37;;;;;;;6.93;2.30;;;;;;;;;;10326115;28;20198;-68
2024/01/06 01:22:37;;;;;;;6.10;2.50;;;;;;;;;;10327121;28;20222;-67
2024/01/06 01:27:37;;;;;;;3.07;2.10;;;;;;;;;;10327333;28;20194;-67
2024/01/06 01:32:37;;;;;;;6.37;2.37;;;;;;;;;;10325198;28;20197;-68
2024/01/06 01:37:37;;;;;;;2.70;2.10;;;;;;;;;;10326802;28;20247;-68
2024/01/06 01:42:37;;;;;;;5.33;2.87;;;;;;;;;;10333895;28;20225;-68
2024/01/06 01:47:39;;;;;;;5.90;2.20;;;;;;;;;;10420861;22;20264;-68
2024/01/06 01:52:40;;;;;;;4.87;2.30;;;;;;;;;;10416870;28;20793;-68
2024/01/06 01:57:40;;;;;;;3.30;2.27;;;;;;;;;;10385505;28;20837;-68
2024/01/06 02:02:41;;;;;;;3.10;2.40;;;;;;;;;;10382631;28;20217;-69
2024/01/06 02:07:41;;;;;;;6.03;2.40;;;;;;;;;;10382730;28;20213;-68
2024/01/06 02:12:41;;;;;;;6.40;2.03;;;;;;;;;;10383004;28;20534;-68
2024/01/06 02:17:41;;;;;;;4.73;1.80;;;;;;;;;;10382915;28;20598;-68
2024/01/06 02:22:41;;;;;;;5.77;2.13;;;;;;;;;;10381657;28;20217;-68
2024/01/06 02:27:41;;;;;;;4.73;1.77;;;;;;;;;;10381086;28;20209;-69
2024/01/06 02:32:42;;;;;;;3.47;1.97;;;;;;;;;;10382197;28;20581;-68
2024/01/06 02:37:42;;;;;;;4.37;2.33;;;;;;;;;;10382490;28;20276;-69
2024/01/06 02:42:42;;;;;;;3.03;1.90;;;;;;;;;;10380621;28;20239;-68
2024/01/06 02:47:42;;;;;;;4.57;2.43;;;;;;;;;;10380390;28;20236;-69
2024/01/06 02:52:43;;;;;;;7.43;2.57;;;;;;;;;;10380216;28;20197;-68
2024/01/06 02:57:44;;;;;;;9.10;2.50;;;;;;;;;;10380075;28;20229;-68
2024/01/06 03:02:44;;;;;;;3.50;2.10;;;;;;;;;;10384467;28;20243;-68
2024/01/06 03:07:44;;;;;;;3.50;2.30;;;;;;;;;;10379691;28;20217;-68
2024/01/06 03:12:44;;;;;;;3.03;2.00;;;;;;;;;;10379771;28;20201;-68
2024/01/06 03:17:44;;;;;;;6.93;2.50;;;;;;;;;;10379059;28;20206;-68
2024/01/06 03:22:44;;;;;;;5.63;2.43;;;;;;;;;;10381710;28;20219;-68
2024/01/06 03:27:45;;;;;;;3.23;2.20;;;;;;;;;;10380268;28;20592;-68
2024/01/06 03:32:45;;;;;;;12.63;3.00;;;;;;;;;;10380425;28;20201;-68
2024/01/06 03:37:45;;;;;;;4.30;2.70;;;;;;;;;;10378559;28;20899;-68
2024/01/06 03:42:45;;;;;;;3.80;2.27;;;;;;;;;;10377558;28;20239;-68
2024/01/06 03:47:45;;;;;;;4.87;2.47;;;;;;;;;;10383937;28;20236;-68
2024/01/06 03:52:46;;;;;;;8.33;2.70;;;;;;;;;;10383840;28;20199;-68
2024/01/06 03:57:46;;;;;;;4.43;2.50;;;;;;;;;;10381884;28;20201;-68
2024/01/06 04:02:46;;;;;;;4.03;2.73;;;;;;;;;;10382700;28;20580;-68
2024/01/06 04:07:46;;;;;;;6.93;2.73;;;;;;;;;;10383534;28;20209;-68
2024/01/06 04:12:47;;;;;;;1.83;1.63;;;;;;;;;;10383094;28;20706;-68
2024/01/06 04:17:48;;;;;;;2.20;1.93;;;;;;;;;;10383098;28;20478;-68
2024/01/06 04:22:48;;;;;;;5.63;2.20;;;;;;;;;;10383386;28;20235;-68
2024/01/06 04:27:49;;;;;;;4.83;2.20;;;;;;;;;;10383180;28;20211;-68
2024/01/06 04:32:49;;;;;;;3.93;2.07;;;;;;;;;;10383581;28;20247;-68
2024/01/06 04:37:50;;;;;;;5.80;2.63;;;;;;;;;;10379778;28;20310;-68
2024/01/06 04:42:50;;;;;;;2.83;1.87;;;;;;;;;;10383677;28;20220;-68
2024/01/06 04:47:50;;;;;;;8.17;2.60;;;;;;;;;;10382958;28;20339;-68
2024/01/06 04:52:51;;;;;;;3.47;2.47;;;;;;;;;;10383427;28;20246;-68
2024/01/06 04:57:51;;;;;;;7.20;2.97;;;;;;;;;;10378983;28;20213;-68
2024/01/06 05:02:51;;;;;;;5.03;2.30;;;;;;;;;;10382364;28;20888;-69
2024/01/06 05:07:51;;;;;;;6.00;2.47;;;;;;;;;;10382823;28;20217;-68
2024/01/06 05:12:52;;;;;;;3.73;2.17;;;;;;;;;;10380385;28;20231;-68
2024/01/06 05:17:52;;;;;;;5.50;2.63;;;;;;;;;;10380922;28;20212;-68
2024/01/06 05:22:52;;;;;;;4.07;2.63;;;;;;;;;;10380991;28;20667;-68
2024/01/06 05:27:52;;;;;;;2.87;2.50;;;;;;;;;;10380876;28;20193;-68
2024/01/06 05:32:52;;;;;;;4.40;2.37;;;;;;;;;;10380585;28;20200;-68
2024/01/06 05:37:52;;;;;;;6.53;2.20;;;;;;;;;;10380653;28;20658;-68
2024/01/06 05:42:55;;;;;;;6.43;2.83;;;;;;;;;;10380585;28;20225;-68
2024/01/06 05:47:55;;;;;;;4.17;2.80;;;;;;;;;;10380422;28;20294;-68
2024/01/06 05:52:55;;;;;;;9.30;3.20;;;;;;;;;;10378301;28;20232;-68
2024/01/06 05:57:55;;;;;;;4.57;3.00;;;;;;;;;;10381430;28;20221;-68
2024/01/06 06:02:56;;;;;;;6.60;3.57;;;;;;;;;;10381581;28;20609;-68
2024/01/06 06:07:56;;;;;;;4.43;3.00;;;;;;;;;;10381257;28;20212;-68
2024/01/06 06:12:56;;;;;;;5.33;3.03;;;;;;;;;;10378995;28;20203;-68
2024/01/06 06:17:59;;;;;;;6.03;2.90;;;;;;;;;;10380851;28;20305;-68
2024/01/06 06:22:59;;;;;;;4.67;2.87;;;;;;;;;;10372351;28;20221;-68
2024/01/06 06:27:59;;;;;;;38.63;16.43;;;;;;;;;;10376345;28;20927;-68
2024/01/06 06:32:59;;;;;;;9.13;5.27;;;;;;;;;;10379994;28;20194;-68
2024/01/06 06:38:00;;;;;;;21.63;10.57;;;;;;;;;;10377798;28;20543;-68
2024/01/06 06:43:00;;;;;;;12.07;6.60;;;;;;;;;;10377617;28;20217;-68
2024/01/06 06:48:00;;;;;;;14.23;9.70;;;;;;;;;;10376908;28;20483;-68
2024/01/06 06:53:00;;;;;;;10.67;5.50;;;;;;;;;;10377250;28;20557;-67
2024/01/06 06:58:01;;;;;;;7.37;3.97;;;;;;;;;;10377573;28;20185;-68
2024/01/06 07:03:01;;;;;;;5.27;2.77;;;;;;;;;;10377344;28;20699;-68
2024/01/06 07:08:01;;;;;;;5.00;3.20;;;;;;;;;;10376243;28;20185;-68
2024/01/06 07:13:01;;;;;;;8.10;3.23;;;;;;;;;;10387083;28;20196;-68
2024/01/06 07:18:02;;;;;;;7.17;4.27;;;;;;;;;;10377589;28;20197;-68
2024/01/06 07:23:03;;;;;;;6.13;2.97;;;;;;;;;;10376555;28;20484;-68
2024/01/06 07:28:03;;;;;;;19.53;9.20;;;;;;;;;;10384598;28;20276;-68
2024/01/06 07:33:03;;;;;;;6.23;4.07;;;;;;;;;;10384531;28;20189;-68
2024/01/06 07:38:04;;;;;;;5.53;4.40;;;;;;;;;;10380521;28;20201;-68
2024/01/06 07:43:04;;;;;;;6.93;4.70;;;;;;;;;;10375198;28;20228;-67
2024/01/06 07:48:04;;;;;;;4.03;2.13;;;;;;;;;;10374320;28;20196;-68
2024/01/06 07:53:05;;;;;;;4.73;3.30;;;;;;;;;;10374701;28;20620;-68
2024/01/06 07:58:05;;;;;;;11.13;8.47;;;;;;;;;;10385101;28;20563;-68
2024/01/06 08:03:06;;;;;;;5.97;4.03;;;;;;;;;;10384820;28;20216;-68
2024/01/06 08:08:06;;;;;;;9.07;4.73;;;;;;;;;;10377834;28;20246;-67
2024/01/06 08:13:06;;;;;;;9.00;5.40;;;;;;;;;;10383624;28;20299;-68
2024/01/06 08:18:07;;;;;;;5.57;3.60;;;;;;;;;;10382728;28;20211;-67
2024/01/06 08:23:07;;;;;;;4.90;4.00;;;;;;;;;;10381526;28;20217;-68
2024/01/06 08:28:07;;;;;;;8.37;3.40;;;;;;;;;;10381171;28;20196;-68
2024/01/06 08:33:07;;;;;;;4.97;3.13;;;;;;;;;;10381149;28;20664;-68
2024/01/06 08:38:07;;;;;;;6.57;3.30;;;;;;;;;;10377820;28;20316;-68
2024/01/06 08:43:07;;;;;;;8.20;3.30;;;;;;;;;;10381934;28;20221;-68
2024/01/06 08:48:08;;;;;;;5.70;3.67;;;;;;;;;;10381369;28;20181;-68
2024/01/06 08:53:08;;;;;;;7.27;4.27;;;;;;;;;;10381763;28;20746;-68
2024/01/06 08:58:08;;;;;;;9.37;3.70;;;;;;;;;;10381992;28;21229;-68
2024/01/06 09:03:09;;;;;;;7.80;3.63;;;;;;;;;;10379532;28;20217;-67
2024/01/06 09:08:09;;;;;;;11.53;5.53;;;;;;;;;;10380041;28;20260;-68
2024/01/06 09:13:10;;;;;;;11.30;5.47;;;;;;;;;;10378545;28;20197;-68
2024/01/06 09:18:10;;;;;;;21.93;9.67;;;;;;;;;;10378944;28;20201;-68
2024/01/06 09:23:11;;;;;;;245.47;95.23;;;;;;;;;;10370485;28;20223;-68
2024/01/06 09:28:11;;;;;;;32.57;15.47;;;;;;;;;;10377361;28;20219;-68
2024/01/06 09:33:15;;;;;;;11.90;7.50;;;;;;;;;;10379092;28;20197;-67
2024/01/06 09:38:15;;;;;;;15.40;8.37;;;;;;;;;;10377820;28;20181;-68
2024/01/06 09:43:15;;;;;;;11.27;7.60;;;;;;;;;;10378456;28;20703;-67
2024/01/06 09:48:16;;;;;;;13.87;7.53;;;;;;;;;;10376621;28;20292;-68
2024/01/06 09:53:16;;;;;;;13.77;10.40;;;;;;;;;;10380472;28;20190;-68
2024/01/06 09:58:17;;;;;;;16.27;13.90;;;;;;;;;;10380008;28;20239;-68
2024/01/06 10:03:17;;;;;;;14.83;11.23;;;;;;;;;;10384358;28;20472;-67
2024/01/06 10:08:18;;;;;;;11.00;9.13;;;;;;;;;;10386830;28;20439;-67
2024/01/06 10:13:18;;;;;;;12.37;8.50;;;;;;;;;;10387521;28;20193;-67
2024/01/06 10:18:18;;;;;;;11.50;7.53;;;;;;;;;;10386740;28;20197;-68
2024/01/06 10:23:18;;;;;;;8.73;6.10;;;;;;;;;;10373684;28;20213;-68
2024/01/06 10:28:20;;;;;;;11.30;5.97;;;;;;;;;;10373271;28;20181;-67
2024/01/06 10:33:24;;;;;;;12.37;6.70;;;;;;;;;;10386236;28;20193;-68
2024/01/06 10:38:25;;;;;;;8.80;6.23;;;;;;;;;;10388581;28;20239;-67
2024/01/06 10:43:29;;;;;;;11.37;8.20;;;;;;;;;;10384492;28;20724;-68
2024/01/06 10:48:30;;;;;;;16.77;10.90;;;;;;;;;;10384684;28;20698;-68
2024/01/06 10:53:30;;;;;;;14.33;9.47;;;;;;;;;;10384761;28;20216;-68
2024/01/06 10:58:32;;;;;;;9.83;4.97;;;;;;;;;;10384288;28;20667;-68
2024/01/06 11:03:32;;;;;;;9.67;5.47;;;;;;;;;;10384061;28;20786;-69
2024/01/06 11:08:36;;;;;;;7.13;2.97;;;;;;;;;;10383078;28;20331;-69
2024/01/06 11:13:38;;;;;;;8.30;3.43;;;;;;;;;;10383089;28;20355;-68
2024/01/06 11:18:39;;;;;;;7.27;2.70;;;;;;;;;;10379824;28;20201;-68
2024/01/06 11:23:40;;;;;;;8.50;4.50;;;;;;;;;;10385244;28;20230;-68
2024/01/06 11:28:47;;;;;;;8.63;3.50;;;;;;;;;;10387619;28;20564;-69
2024/01/06 11:33:50;;;;;;;6.73;3.40;;;;;;;;;;10382633;28;20581;-68
2024/01/06 11:38:51;;;;;;;6.20;3.23;;;;;;;;;;10383980;28;20194;-68
2024/01/06 11:43:52;;;;;;;8.97;3.40;;;;;;;;;;10383596;28;20232;-68
2024/01/06 11:48:53;;;;;;;9.77;5.53;;;;;;;;;;10383802;28;20719;-68
2024/01/06 11:53:53;;;;;;;21.53;13.67;;;;;;;;;;10382941;28;20300;-67
2024/01/06 11:58:53;;;;;;;13.53;7.07;;;;;;;;;;10383704;28;20276;-68
2024/01/06 12:03:54;;;;;;;8.30;4.20;;;;;;;;;;10382685;28;20734;-67
2024/01/06 12:09:03;;;;;;;7.33;3.87;;;;;;;;;;10383288;28;20248;-68
2024/01/06 12:14:03;;;;;;;13.27;3.80;;;;;;;;;;10381727;28;20209;-68
2024/01/06 12:19:03;;;;;;;10.13;3.87;;;;;;;;;;10382855;28;20256;-68
2024/01/06 12:24:17;;;;;;;7.97;4.40;;;;;;;;;;10374744;28;20714;-69
2024/01/06 12:29:17;;;;;;;14.93;6.00;;;;;;;;;;10386144;28;20193;-68
2024/01/06 12:34:17;;;;;;;11.07;6.00;;;;;;;;;;10380610;28;20209;-68
2024/01/06 12:39:18;;;;;;;13.63;6.63;;;;;;;;;;10378191;28;20546;-68
2024/01/06 12:44:18;;;;;;;13.20;6.83;;;;;;;;;;10373329;28;20312;-68
2024/01/06 12:49:18;;;;;;;9.23;4.47;;;;;;;;;;10374141;28;20937;-68
2024/01/06 12:54:18;;;;;;;10.33;4.83;;;;;;;;;;10394037;22;20253;-70
2024/01/06 12:59:18;;;;;;;10.40;4.83;;;;;;;;;;10322738;28;20298;-70
2024/01/06 13:04:18;;;;;;;7.60;4.80;;;;;;;;;;10326769;28;20288;-70
2024/01/06 13:09:19;;;;;;;38.37;17.30;;;;;;;;;;10326488;28;20186;-70
2024/01/06 13:14:19;;;;;;;17.50;9.07;;;;;;;;;;10326459;28;20217;-70
2024/01/06 13:19:20;;;;;;;12.87;5.57;;;;;;;;;;10325350;28;20931;-70
2024/01/06 13:24:20;;;;;;;12.47;5.50;;;;;;;;;;10326006;28;20718;-70
2024/01/06 13:29:20;;;;;;;11.60;6.40;;;;;;;;;;10327053;28;20197;-70
2024/01/06 13:34:21;;;;;;;19.37;14.00;;;;;;;;;;10327385;28;20210;-70
2024/01/06 13:39:21;;;;;;;13.47;10.73;;;;;;;;;;10335546;28;20198;-70
2024/01/06 13:44:22;;;;;;;14.60;8.63;;;;;;;;;;10334136;28;20297;-70
2024/01/06 13:49:23;;;;;;;15.60;8.07;;;;;;;;;;10335379;28;20449;-70
2024/01/06 13:54:24;;;;;;;17.37;8.33;;;;;;;;;;10336422;28;20765;-70
2024/01/06 13:59:24;;;;;;;20.30;9.90;;;;;;;;;;10335088;28;20268;-69
2024/01/06 14:04:24;;;;;;;19.67;10.13;;;;;;;;;;10334526;28;20259;-70
2024/01/06 14:09:25;;;;;;;24.60;11.53;;;;;;;;;;10333563;28;20962;-70
2024/01/06 14:14:25;;;;;;;28.43;13.80;;;;;;;;;;10334029;28;20198;-70
2024/01/06 14:19:25;;;;;;;24.37;14.23;;;;;;;;;;10332589;28;20234;-70
2024/01/06 14:24:26;;;;;;;30.97;17.27;;;;;;;;;;10333590;28;20217;-70
2024/01/06 14:29:26;;;;;;;31.07;16.23;;;;;;;;;;10333566;28;20194;-70
2024/01/06 14:34:26;;;;;;;34.70;18.47;;;;;;;;;;10330637;28;20218;-70
2024/01/06 14:39:27;;;;;;;37.47;20.10;;;;;;;;;;10333216;28;20493;-70
2024/01/06 14:44:28;;;;;;;35.37;19.67;;;;;;;;;;10332813;28;20221;-70
2024/01/06 14:49:28;;;;;;;37.53;21.47;;;;;;;;;;10332227;28;20252;-69
2024/01/06 14:54:30;;;;;;;36.33;21.13;;;;;;;;;;10332039;28;20241;-70
2024/01/06 14:59:32;;;;;;;49.53;25.03;;;;;;;;;;10332282;28;20206;-69
2024/01/06 15:04:32;;;;;;;53.67;28.13;;;;;;;;;;10331944;28;20218;-70
2024/01/06 15:09:32;;;;;;;55.60;28.30;;;;;;;;;;10331965;28;20276;-70
2024/01/06 15:14:32;;;;;;;70.73;29.87;;;;;;;;;;10331563;28;20641;-69
2024/01/06 15:19:33;;;;;;;55.13;27.20;;;;;;;;;;10331302;28;20205;-70
2024/01/06 15:24:33;;;;;;;55.70;28.97;;;;;;;;;;10330863;28;20232;-70
2024/01/06 15:29:33;;;;;;;60.13;28.77;;;;;;;;;;10330020;28;20189;-69
2024/01/06 15:34:34;;;;;;;79.73;29.77;;;;;;;;;;10330423;28;20700;-69
2024/01/06 15:39:34;;;;;;;63.43;28.93;;;;;;;;;;10330492;28;20807;-69
2024/01/06 15:44:34;;;;;;;59.10;29.20;;;;;;;;;;10330589;28;20232;-69
2024/01/06 15:49:34;;;;;;;66.47;30.13;;;;;;;;;;10327508;28;20201;-69
2024/01/06 15:54:34;;;;;;;66.40;30.07;;;;;;;;;;10330102;28;20242;-69
2024/01/06 15:59:35;;;;;;;70.20;31.13;;;;;;;;;;10328927;28;20197;-69
2024/01/06 16:04:35;;;;;;;83.07;30.53;;;;;;;;;;10327041;28;20771;-69
2024/01/06 16:09:35;;;;;;;69.50;28.83;;;;;;;;;;10329496;28;20313;-69
2024/01/06 16:14:35;;;;;;;90.33;27.83;;;;;;;;;;10328897;28;20229;-69
2024/01/06 16:19:36;;;;;;;65.63;27.47;;;;;;;;;;10329316;28;20197;-69
2024/01/06 16:24:37;;;;;;;167.33;32.63;;;;;;;;;;10321422;28;20716;-69
2024/01/06 16:29:38;;;;;;;207.63;32.20;;;;;;;;;;10327765;28;20610;-70
2024/01/06 16:34:41;;;;;;;172.73;33.20;;;;;;;;;;10327144;28;20244;-70
2024/01/06 16:39:41;;;;;;;127.27;29.97;;;;;;;;;;10327557;28;20224;-69
2024/01/06 16:44:42;;;;;;;163.20;29.77;;;;;;;;;;10323021;28;20232;-70
2024/01/06 16:49:42;;;;;;;118.73;37.90;;;;;;;;;;10316105;28;20216;-69
2024/01/06 16:54:42;;;;;;;76.17;31.13;;;;;;;;;;10323156;28;20674;-70
2024/01/06 16:59:43;;;;;;;299.83;76.83;;;;;;;;;;10321033;28;20680;-69
2024/01/06 17:04:43;;;;;;;186.13;38.60;;;;;;;;;;10316573;28;20236;-69
2024/01/06 17:09:46;;;;;;;109.43;35.37;;;;;;;;;;10322915;28;20190;-69
2024/01/06 17:14:46;;;;;;;135.97;35.93;;;;;;;;;;10321412;28;20243;-69
2024/01/06 17:19:46;;;;;;;186.50;44.37;;;;;;;;;;10322149;28;20317;-69
2024/01/06 17:24:47;;;;;;;367.20;46.10;;;;;;;;;;10319076;28;20229;-69
2024/01/06 17:29:47;;;;;;;155.77;45.13;;;;;;;;;;10325393;28;20622;-69
2024/01/06 17:34:47;;;;;;;268.33;122.77;;;;;;;;;;10326622;28;20249;-69
2024/01/06 17:39:47;;;;;;;158.23;44.07;;;;;;;;;;10324080;28;20206;-69
2024/01/06 17:44:47;;;;;;;123.43;45.90;;;;;;;;;;10326367;28;20703;-69
2024/01/06 17:49:48;;;;;;;143.23;50.80;;;;;;;;;;10326524;28;20194;-69
2024/01/06 17:54:48;;;;;;;152.47;46.83;;;;;;;;;;10326171;28;20507;-69
2024/01/06 17:59:50;;;;;;;159.80;49.80;;;;;;;;;;10324237;28;20591;-69
2024/01/06 18:04:50;;;;;;;147.77;48.73;;;;;;;;;;10326413;28;20782;-69
2024/01/06 18:09:50;;;;;;;175.20;53.47;;;;;;;;;;10326559;28;20276;-69
2024/01/06 18:14:50;;;;;;;468.97;58.57;;;;;;;;;;10326459;28;20209;-69
2024/01/06 18:19:51;;;;;;;270.70;77.90;;;;;;;;;;10323854;28;20216;-69
2024/01/06 18:24:51;;;;;;;377.17;68.13;;;;;;;;;;10333322;28;20221;-69
2024/01/06 18:29:51;;;;;;;293.40;63.83;;;;;;;;;;10332996;28;20566;-68
2024/01/06 18:34:52;;;;;;;275.47;60.97;;;;;;;;;;10333557;28;20209;-68
2024/01/06 18:39:52;;;;;;;194.70;57.10;;;;;;;;;;10330898;28;20248;-69
2024/01/06 18:44:52;;;;;;;437.97;60.17;;;;;;;;;;10333046;28;20600;-68
2024/01/06 18:49:52;;;;;;;293.97;53.87;;;;;;;;;;10333563;28;20197;-69
2024/01/06 18:54:53;;;;;;;414.83;57.77;;;;;;;;;;10330101;28;20242;-69
2024/01/06 18:59:53;;;;;;;338.97;47.67;;;;;;;;;;10326514;28;20203;-68
2024/01/06 19:04:54;;;;;;;334.23;49.67;;;;;;;;;;10328743;28;20221;-68
2024/01/06 19:09:54;;;;;;;262.50;47.27;;;;;;;;;;10328767;28;20197;-69
2024/01/06 19:14:54;;;;;;;242.90;44.60;;;;;;;;;;10323548;28;20218;-68
2024/01/06 19:19:54;;;;;;;376.20;50.13;;;;;;;;;;10327834;28;20576;-68
2024/01/06 19:24:55;;;;;;;189.93;46.83;;;;;;;;;;10325793;28;20217;-69
2024/01/06 19:29:55;;;;;;;803.90;73.90;;;;;;;;;;10327607;28;20214;-69
2024/01/06 19:34:55;;;;;;;376.43;52.00;;;;;;;;;;10320661;28;20651;-69
2024/01/06 19:39:55;;;;;;;693.03;68.67;;;;;;;;;;10327275;28;20216;-68
2024/01/06 19:44:55;;;;;;;381.93;53.23;;;;;;;;;;10366654;22;20322;-69
2024/01/06 19:49:56;;;;;;;797.53;71.07;;;;;;;;;;10402978;28;20272;-68
2024/01/06 19:54:56;;;;;;;174.17;47.30;;;;;;;;;;10404438;28;20703;-69
2024/01/06 19:59:59;;;;;;;381.47;52.77;;;;;;;;;;10370474;28;20443;-69
2024/01/06 20:05:01;;;;;;;723.40;67.80;;;;;;;;;;10357188;28;20275;-69
2024/01/06 20:10:02;;;;;;;512.70;57.50;;;;;;;;;;10360682;28;20252;-67
2024/01/06 20:15:03;;;;;;;388.33;50.03;;;;;;;;;;10363456;28;20286;-69
2024/01/06 20:20:03;;;;;;;268.47;43.43;;;;;;;;;;10370018;28;20674;-68
2024/01/06 20:25:04;;;;;;;779.83;67.87;;;;;;;;;;10366681;28;20699;-69
2024/01/06 20:30:05;;;;;;;438.23;51.67;;;;;;;;;;10365980;28;20656;-68
2024/01/06 20:35:07;;;;;;;352.10;48.40;;;;;;;;;;10357806;28;20213;-69
2024/01/06 20:40:09;;;;;;;466.00;50.13;;;;;;;;;;10356197;28;20776;-69
2024/01/06 20:45:09;;;;;;;299.47;41.93;;;;;;;;;;10348481;28;20233;-69
2024/01/06 20:50:09;;;;;;;500.37;48.83;;;;;;;;;;10361523;28;20282;-69
2024/01/06 20:55:11;;;;;;;533.13;51.37;;;;;;;;;;10368364;28;20205;-69
2024/01/06 21:00:11;;;;;;;510.60;48.40;;;;;;;;;;10352857;28;20216;-69
2024/01/06 21:05:11;;;;;;;291.43;42.87;;;;;;;;;;10365307;28;20271;-69
2024/01/06 21:10:11;;;;;;;385.97;45.67;;;;;;;;;;10368138;28;20528;-68
2024/01/06 21:15:12;;;;;;;383.10;45.63;;;;;;;;;;10367908;28;20707;-69
2024/01/06 21:20:13;;;;;;;421.93;47.43;;;;;;;;;;10365190;28;20193;-68
2024/01/06 21:25:23;;;;;;;540.80;48.33;;;;;;;;;;10367461;28;20311;-69
2024/01/06 21:30:23;;;;;;;768.20;57.53;;;;;;;;;;10367163;28;20177;-69
2024/01/06 21:35:23;;;;;;;445.27;47.97;;;;;;;;;;10367355;28;20218;-69
2024/01/06 21:40:27;;;;;;;424.20;48.07;;;;;;;;;;10364728;28;20196;-69
2024/01/06 21:45:27;;;;;;;281.43;41.00;;;;;;;;;;10367034;28;20710;-69
2024/01/06 21:50:29;;;;;;;485.53;53.70;;;;;;;;;;10367455;28;20189;-69
2024/01/06 21:55:29;;;;;;;599.37;54.90;;;;;;;;;;10367796;28;20703;-69
2024/01/06 22:00:30;;;;;;;422.20;49.77;;;;;;;;;;10372501;28;20268;-69
2024/01/06 22:05:30;;;;;;;258.20;43.83;;;;;;;;;;10374455;28;20718;-69
2024/01/06 22:10:33;;;;;;;373.70;45.77;;;;;;;;;;10374832;28;20200;-69
2024/01/06 22:15:33;;;;;;;456.20;44.37;;;;;;;;;;10374717;28;20217;-69
2024/01/06 22:20:33;;;;;;;404.33;50.90;;;;;;;;;;10371341;28;20215;-69
2024/01/06 22:25:34;;;;;;;237.50;40.53;;;;;;;;;;10374144;28;20216;-69
2024/01/06 22:30:34;;;;;;;552.57;54.53;;;;;;;;;;10374027;28;20196;-69
2024/01/06 22:35:35;;;;;;;395.53;45.43;;;;;;;;;;10372836;28;20212;-69
2024/01/06 22:40:35;;;;;;;255.37;38.20;;;;;;;;;;10372021;28;20448;-69
2024/01/06 22:45:37;;;;;;;169.87;34.90;;;;;;;;;;10373288;28;20738;-69
2024/01/06 22:50:38;;;;;;;341.93;37.80;;;;;;;;;;10373238;28;20679;-69
2024/01/06 22:55:38;;;;;;;452.33;45.37;;;;;;;;;;10370331;28;20228;-69
2024/01/06 23:00:38;;;;;;;281.33;38.53;;;;;;;;;;10373248;28;20238;-69
2024/01/06 23:05:39;;;;;;;141.70;33.97;;;;;;;;;;10373060;28;20695;-69
2024/01/06 23:10:39;;;;;;;240.87;36.10;;;;;;;;;;10372890;28;20657;-69
2024/01/06 23:15:40;;;;;;;167.93;35.00;;;;;;;;;;10369885;28;20217;-70
2024/01/06 23:20:40;;;;;;;284.33;39.63;;;;;;;;;;10372673;28;20217;-70
2024/01/06 23:25:40;;;;;;;223.13;37.30;;;;;;;;;;10372131;28;20267;-69
2024/01/06 23:30:40;;;;;;;178.60;37.60;;;;;;;;;;10372219;28;20181;-69
2024/01/06 23:35:41;;;;;;;111.87;35.13;;;;;;;;;;10369046;28;20210;-69
2024/01/06 23:40:41;;;;;;;84.23;30.50;;;;;;;;;;10371514;28;20452;-69
2024/01/06 23:45:41;;;;;;;160.90;37.53;;;;;;;;;;10371637;28;20237;-69
2024/01/06 23:50:42;;;;;;;92.10;33.30;;;;;;;;;;10371075;28;20197;-69
2024/01/06 23:55:42;;;;;;;95.37;34.07;;;;;;;;;;10368544;28;20578;-69
